sensor_id;sensor_type;location;lat;lon;timestamp;temperature;humidity
53294;DHT22;39181;53.440;5.644;2022-07-30T00:01:15;15.40;99.90
53294;DHT22;39181;53.440;5.644;2022-07-30T00:03:41;15.30;99.90
53294;DHT22;39181;53.440;5.644;2022-07-30T00:06:06;15.70;99.90
53294;DHT22;39181;53.440;5.644;2022-07-30T00:08:32;15.30;99.90
53294;DHT22;39181;53.440;5.644;2022-07-30T00:10:57;15.20;99.90
53294;DHT22;39181;53.440;5.644;2022-07-30T00:13:23;15.20;99.90
53294;DHT22;39181;53.440;5.644;2022-07-30T00:15:49;15.10;99.90
53294;DHT22;39181;53.440;5.644;2022-07-30T00:18:15;15.10;99.90
53294;DHT22;39181;53.440;5.644;2022-07-30T00:20:40;15.00;99.90
53294;DHT22;39181;53.440;5.644;2022-07-30T00:23:06;15.00;99.90
53294;DHT22;39181;53.440;5.644;2022-07-30T00:25:31;15.00;99.90
53294;DHT22;39181;53.440;5.644;2022-07-30T00:27:57;15.00;99.90
53294;DHT22;39181;53.440;5.644;2022-07-30T00:30:23;14.90;99.90
53294;DHT22;39181;53.440;5.644;2022-07-30T00:32:49;14.90;99.90
53294;DHT22;39181;53.440;5.644;2022-07-30T00:35:14;14.90;99.90
53294;DHT22;39181;53.440;5.644;2022-07-30T00:37:40;14.80;99.90
53294;DHT22;39181;53.440;5.644;2022-07-30T00:40:07;14.80;99.90
53294;DHT22;39181;53.440;5.644;2022-07-30T00:42:42;14.80;99.90
53294;DHT22;39181;53.440;5.644;2022-07-30T00:45:09;14.80;99.90
53294;DHT22;39181;53.440;5.644;2022-07-30T00:47:35;14.80;99.90
53294;DHT22;39181;53.440;5.644;2022-07-30T00:50:02;14.70;99.90
53294;DHT22;39181;53.440;5.644;2022-07-30T00:52:32;14.70;99.90
53294;DHT22;39181;53.440;5.644;2022-07-30T00:54:59;14.70;99.90
53294;DHT22;39181;53.440;5.644;2022-07-30T00:57:27;14.60;99.90
53294;DHT22;39181;53.440;5.644;2022-07-30T00:59:53;14.60;99.90
53294;DHT22;39181;53.440;5.644;2022-07-30T01:02:19;14.60;99.90
53294;DHT22;39181;53.440;5.644;2022-07-30T01:04:45;14.60;99.90
53294;DHT22;39181;53.440;5.644;2022-07-30T01:07:10;14.60;99.90
53294;DHT22;39181;53.440;5.644;2022-07-30T01:09:37;14.60;99.90
53294;DHT22;39181;53.440;5.644;2022-07-30T01:12:03;14.50;99.90
53294;DHT22;39181;53.440;5.644;2022-07-30T01:14:33;14.50;99.90
53294;DHT22;39181;53.440;5.644;2022-07-30T01:16:58;14.50;99.90
53294;DHT22;39181;53.440;5.644;2022-07-30T01:19:27;14.50;99.90
53294;DHT22;39181;53.440;5.644;2022-07-30T01:27:32;14.40;99.90
53294;DHT22;39181;53.440;5.644;2022-07-30T01:30:00;14.40;99.90
53294;DHT22;39181;53.440;5.644;2022-07-30T01:32:27;14.40;99.90
53294;DHT22;39181;53.440;5.644;2022-07-30T01:34:56;14.40;99.90
53294;DHT22;39181;53.440;5.644;2022-07-30T01:37:23;14.40;99.90
53294;DHT22;39181;53.440;5.644;2022-07-30T01:39:50;14.40;99.90
53294;DHT22;39181;53.440;5.644;2022-07-30T01:42:18;14.40;99.90
53294;DHT22;39181;53.440;5.644;2022-07-30T01:44:44;14.50;99.90
53294;DHT22;39181;53.440;5.644;2022-07-30T01:47:12;14.30;99.90
53294;DHT22;39181;53.440;5.644;2022-07-30T01:49:39;14.30;99.90
53294;DHT22;39181;53.440;5.644;2022-07-30T01:52:07;14.30;99.90
53294;DHT22;39181;53.440;5.644;2022-07-30T01:54:35;14.20;99.90
53294;DHT22;39181;53.440;5.644;2022-07-30T01:57:04;14.20;99.90
53294;DHT22;39181;53.440;5.644;2022-07-30T01:59:32;14.20;99.90
53294;DHT22;39181;53.440;5.644;2022-07-30T02:01:58;14.20;99.90
53294;DHT22;39181;53.440;5.644;2022-07-30T02:04:24;14.20;99.90
53294;DHT22;39181;53.440;5.644;2022-07-30T02:07:02;14.10;99.90
53294;DHT22;39181;53.440;5.644;2022-07-30T02:09:34;14.10;99.90
53294;DHT22;39181;53.440;5.644;2022-07-30T02:12:01;14.10;99.90
53294;DHT22;39181;53.440;5.644;2022-07-30T02:14:52;14.10;99.90
53294;DHT22;39181;53.440;5.644;2022-07-30T02:17:28;14.10;99.90
53294;DHT22;39181;53.440;5.644;2022-07-30T02:19:54;14.10;99.90
53294;DHT22;39181;53.440;5.644;2022-07-30T02:22:24;14.00;99.90
53294;DHT22;39181;53.440;5.644;2022-07-30T02:24:51;14.00;99.90
53294;DHT22;39181;53.440;5.644;2022-07-30T02:27:21;14.00;99.90
53294;DHT22;39181;53.440;5.644;2022-07-30T02:29:49;14.00;99.90
53294;DHT22;39181;53.440;5.644;2022-07-30T02:32:19;14.00;99.90
53294;DHT22;39181;53.440;5.644;2022-07-30T02:34:48;14.00;99.90
53294;DHT22;39181;53.440;5.644;2022-07-30T02:37:16;14.00;99.90
53294;DHT22;39181;53.440;5.644;2022-07-30T02:39:44;14.10;99.90
53294;DHT22;39181;53.440;5.644;2022-07-30T02:42:14;14.10;99.90
53294;DHT22;39181;53.440;5.644;2022-07-30T02:44:41;14.10;99.90
53294;DHT22;39181;53.440;5.644;2022-07-30T02:47:08;14.20;99.90
53294;DHT22;39181;53.440;5.644;2022-07-30T02:49:35;14.30;99.90
53294;DHT22;39181;53.440;5.644;2022-07-30T02:52:02;14.40;99.90
53294;DHT22;39181;53.440;5.644;2022-07-30T02:54:30;14.50;99.90
53294;DHT22;39181;53.440;5.644;2022-07-30T02:56:58;14.70;99.90
53294;DHT22;39181;53.440;5.644;2022-07-30T02:59:25;14.60;99.90
53294;DHT22;39181;53.440;5.644;2022-07-30T03:01:53;14.50;99.90
53294;DHT22;39181;53.440;5.644;2022-07-30T03:04:20;14.50;99.90
53294;DHT22;39181;53.440;5.644;2022-07-30T03:06:47;14.40;99.90
53294;DHT22;39181;53.440;5.644;2022-07-30T03:09:15;14.40;99.90
53294;DHT22;39181;53.440;5.644;2022-07-30T03:11:41;14.30;99.90
53294;DHT22;39181;53.440;5.644;2022-07-30T03:14:08;14.40;99.90
53294;DHT22;39181;53.440;5.644;2022-07-30T03:16:36;14.40;99.90
53294;DHT22;39181;53.440;5.644;2022-07-30T03:19:06;14.30;99.90
53294;DHT22;39181;53.440;5.644;2022-07-30T03:21:35;14.40;99.90
53294;DHT22;39181;53.440;5.644;2022-07-30T03:24:04;14.40;99.90
53294;DHT22;39181;53.440;5.644;2022-07-30T03:26:31;14.50;99.90
53294;DHT22;39181;53.440;5.644;2022-07-30T03:28:58;14.70;99.90
53294;DHT22;39181;53.440;5.644;2022-07-30T03:31:24;14.80;99.90
53294;DHT22;39181;53.440;5.644;2022-07-30T03:33:50;15.00;99.90
53294;DHT22;39181;53.440;5.644;2022-07-30T03:36:16;15.10;99.90
53294;DHT22;39181;53.440;5.644;2022-07-30T03:38:43;15.20;99.90
53294;DHT22;39181;53.440;5.644;2022-07-30T03:41:09;15.30;99.90
53294;DHT22;39181;53.440;5.644;2022-07-30T03:43:37;15.40;99.90
53294;DHT22;39181;53.440;5.644;2022-07-30T03:46:04;15.40;99.90
53294;DHT22;39181;53.440;5.644;2022-07-30T03:48:33;15.40;99.90
53294;DHT22;39181;53.440;5.644;2022-07-30T03:51:00;15.50;99.90
53294;DHT22;39181;53.440;5.644;2022-07-30T03:53:27;15.50;99.90
53294;DHT22;39181;53.440;5.644;2022-07-30T03:55:54;15.50;99.90
53294;DHT22;39181;53.440;5.644;2022-07-30T03:58:20;15.50;99.90
53294;DHT22;39181;53.440;5.644;2022-07-30T04:00:47;15.60;99.90
53294;DHT22;39181;53.440;5.644;2022-07-30T04:03:27;15.60;99.90
53294;DHT22;39181;53.440;5.644;2022-07-30T04:05:53;15.70;99.90
53294;DHT22;39181;53.440;5.644;2022-07-30T04:08:18;15.60;99.90
53294;DHT22;39181;53.440;5.644;2022-07-30T04:10:44;15.70;99.90
53294;DHT22;39181;53.440;5.644;2022-07-30T04:13:10;15.70;99.90
53294;DHT22;39181;53.440;5.644;2022-07-30T04:15:51;15.70;99.90
53294;DHT22;39181;53.440;5.644;2022-07-30T04:18:19;15.80;99.90
53294;DHT22;39181;53.440;5.644;2022-07-30T04:20:45;15.80;99.90
53294;DHT22;39181;53.440;5.644;2022-07-30T04:23:14;15.80;99.90
53294;DHT22;39181;53.440;5.644;2022-07-30T04:25:41;15.80;99.90
53294;DHT22;39181;53.440;5.644;2022-07-30T04:28:09;15.90;99.90
53294;DHT22;39181;53.440;5.644;2022-07-30T04:30:36;15.90;99.90
53294;DHT22;39181;53.440;5.644;2022-07-30T04:33:03;16.00;99.90
53294;DHT22;39181;53.440;5.644;2022-07-30T04:35:32;16.00;99.90
53294;DHT22;39181;53.440;5.644;2022-07-30T04:37:58;16.10;99.90
53294;DHT22;39181;53.440;5.644;2022-07-30T04:40:25;16.10;99.90
53294;DHT22;39181;53.440;5.644;2022-07-30T04:42:50;16.20;99.90
53294;DHT22;39181;53.440;5.644;2022-07-30T04:45:16;16.20;99.90
53294;DHT22;39181;53.440;5.644;2022-07-30T04:47:45;16.30;99.90
53294;DHT22;39181;53.440;5.644;2022-07-30T04:50:11;16.30;99.90
53294;DHT22;39181;53.440;5.644;2022-07-30T04:52:38;16.40;99.90
53294;DHT22;39181;53.440;5.644;2022-07-30T04:55:06;16.40;99.90
53294;DHT22;39181;53.440;5.644;2022-07-30T04:57:32;16.50;99.90
53294;DHT22;39181;53.440;5.644;2022-07-30T05:00:00;16.60;99.90
53294;DHT22;39181;53.440;5.644;2022-07-30T05:02:28;16.80;99.90
53294;DHT22;39181;53.440;5.644;2022-07-30T05:04:56;16.80;99.90
53294;DHT22;39181;53.440;5.644;2022-07-30T05:07:24;17.00;99.90
53294;DHT22;39181;53.440;5.644;2022-07-30T05:09:50;17.10;99.90
53294;DHT22;39181;53.440;5.644;2022-07-30T05:12:15;17.20;99.90
53294;DHT22;39181;53.440;5.644;2022-07-30T05:14:41;17.30;99.90
53294;DHT22;39181;53.440;5.644;2022-07-30T05:17:07;17.30;99.90
53294;DHT22;39181;53.440;5.644;2022-07-30T05:19:32;17.30;99.90
53294;DHT22;39181;53.440;5.644;2022-07-30T05:21:58;17.30;99.90
53294;DHT22;39181;53.440;5.644;2022-07-30T05:24:24;17.40;99.90
53294;DHT22;39181;53.440;5.644;2022-07-30T05:26:50;17.50;99.90
53294;DHT22;39181;53.440;5.644;2022-07-30T05:29:15;17.70;99.90
53294;DHT22;39181;53.440;5.644;2022-07-30T05:31:41;17.80;99.90
53294;DHT22;39181;53.440;5.644;2022-07-30T05:34:07;17.90;99.90
53294;DHT22;39181;53.440;5.644;2022-07-30T05:36:33;18.00;99.90
53294;DHT22;39181;53.440;5.644;2022-07-30T05:38:58;18.00;99.90
53294;DHT22;39181;53.440;5.644;2022-07-30T05:41:25;18.10;99.90
53294;DHT22;39181;53.440;5.644;2022-07-30T05:43:52;18.20;99.90
53294;DHT22;39181;53.440;5.644;2022-07-30T05:46:18;18.40;99.90
53294;DHT22;39181;53.440;5.644;2022-07-30T05:48:43;18.50;99.90
53294;DHT22;39181;53.440;5.644;2022-07-30T05:51:09;18.80;99.90
53294;DHT22;39181;53.440;5.644;2022-07-30T05:53:34;18.50;99.90
53294;DHT22;39181;53.440;5.644;2022-07-30T05:56:00;18.50;99.90
53294;DHT22;39181;53.440;5.644;2022-07-30T05:58:25;18.60;99.90
53294;DHT22;39181;53.440;5.644;2022-07-30T06:00:51;18.80;99.90
53294;DHT22;39181;53.440;5.644;2022-07-30T06:03:16;18.80;99.90
53294;DHT22;39181;53.440;5.644;2022-07-30T06:05:42;18.90;99.90
53294;DHT22;39181;53.440;5.644;2022-07-30T06:08:07;19.10;99.90
53294;DHT22;39181;53.440;5.644;2022-07-30T06:10:33;19.20;99.90
53294;DHT22;39181;53.440;5.644;2022-07-30T06:12:59;19.40;99.90
53294;DHT22;39181;53.440;5.644;2022-07-30T06:15:25;19.40;99.90
53294;DHT22;39181;53.440;5.644;2022-07-30T06:17:50;19.50;99.90
53294;DHT22;39181;53.440;5.644;2022-07-30T06:20:18;19.50;99.90
53294;DHT22;39181;53.440;5.644;2022-07-30T06:22:44;19.40;99.90
53294;DHT22;39181;53.440;5.644;2022-07-30T06:25:10;19.50;99.90
53294;DHT22;39181;53.440;5.644;2022-07-30T06:27:36;19.50;99.90
53294;DHT22;39181;53.440;5.644;2022-07-30T06:30:04;19.50;99.90
53294;DHT22;39181;53.440;5.644;2022-07-30T06:32:30;19.60;99.90
53294;DHT22;39181;53.440;5.644;2022-07-30T06:34:55;19.60;99.90
53294;DHT22;39181;53.440;5.644;2022-07-30T06:37:21;19.60;99.90
53294;DHT22;39181;53.440;5.644;2022-07-30T06:39:47;19.50;99.90
53294;DHT22;39181;53.440;5.644;2022-07-30T06:42:12;19.60;99.90
53294;DHT22;39181;53.440;5.644;2022-07-30T06:44:38;19.70;99.90
53294;DHT22;39181;53.440;5.644;2022-07-30T06:47:04;19.80;99.90
53294;DHT22;39181;53.440;5.644;2022-07-30T06:49:33;19.70;99.90
53294;DHT22;39181;53.440;5.644;2022-07-30T06:51:59;19.70;99.90
53294;DHT22;39181;53.440;5.644;2022-07-30T06:54:25;19.80;99.90
53294;DHT22;39181;53.440;5.644;2022-07-30T06:56:51;19.80;99.90
53294;DHT22;39181;53.440;5.644;2022-07-30T06:59:17;20.00;99.90
53294;DHT22;39181;53.440;5.644;2022-07-30T07:01:43;20.10;99.90
53294;DHT22;39181;53.440;5.644;2022-07-30T07:04:08;20.00;99.90
53294;DHT22;39181;53.440;5.644;2022-07-30T07:06:34;19.90;99.90
53294;DHT22;39181;53.440;5.644;2022-07-30T07:08:59;19.90;99.90
53294;DHT22;39181;53.440;5.644;2022-07-30T07:11:25;20.20;99.90
53294;DHT22;39181;53.440;5.644;2022-07-30T07:13:50;20.60;99.90
53294;DHT22;39181;53.440;5.644;2022-07-30T07:16:16;21.00;99.90
53294;DHT22;39181;53.440;5.644;2022-07-30T07:18:46;21.40;99.90
53294;DHT22;39181;53.440;5.644;2022-07-30T07:21:13;21.70;99.90
53294;DHT22;39181;53.440;5.644;2022-07-30T07:23:39;21.80;99.90
53294;DHT22;39181;53.440;5.644;2022-07-30T07:26:04;22.10;99.90
53294;DHT22;39181;53.440;5.644;2022-07-30T07:28:30;22.10;99.90
53294;DHT22;39181;53.440;5.644;2022-07-30T07:30:55;22.20;99.90
53294;DHT22;39181;53.440;5.644;2022-07-30T07:33:21;21.90;99.90
53294;DHT22;39181;53.440;5.644;2022-07-30T07:35:46;21.60;99.90
53294;DHT22;39181;53.440;5.644;2022-07-30T07:38:12;21.60;99.90
53294;DHT22;39181;53.440;5.644;2022-07-30T07:40:37;21.50;99.90
53294;DHT22;39181;53.440;5.644;2022-07-30T07:43:03;21.70;99.90
53294;DHT22;39181;53.440;5.644;2022-07-30T07:45:30;21.90;99.90
53294;DHT22;39181;53.440;5.644;2022-07-30T07:47:55;21.80;99.90
53294;DHT22;39181;53.440;5.644;2022-07-30T07:50:21;21.80;99.90
53294;DHT22;39181;53.440;5.644;2022-07-30T07:52:47;21.90;99.90
53294;DHT22;39181;53.440;5.644;2022-07-30T07:55:13;22.20;99.90
53294;DHT22;39181;53.440;5.644;2022-07-30T07:57:44;22.20;99.90
53294;DHT22;39181;53.440;5.644;2022-07-30T08:00:12;22.10;99.90
53294;DHT22;39181;53.440;5.644;2022-07-30T08:02:42;22.00;99.90
53294;DHT22;39181;53.440;5.644;2022-07-30T08:05:08;22.00;99.90
53294;DHT22;39181;53.440;5.644;2022-07-30T08:07:37;22.20;99.90
53294;DHT22;39181;53.440;5.644;2022-07-30T08:10:03;22.20;99.90
53294;DHT22;39181;53.440;5.644;2022-07-30T08:12:28;22.10;99.90
53294;DHT22;39181;53.440;5.644;2022-07-30T08:14:54;22.30;99.90
53294;DHT22;39181;53.440;5.644;2022-07-30T08:17:20;22.20;99.90
53294;DHT22;39181;53.440;5.644;2022-07-30T08:19:46;22.50;99.90
53294;DHT22;39181;53.440;5.644;2022-07-30T08:22:12;22.60;99.90
53294;DHT22;39181;53.440;5.644;2022-07-30T08:24:38;22.60;99.90
53294;DHT22;39181;53.440;5.644;2022-07-30T08:27:04;22.40;99.90
53294;DHT22;39181;53.440;5.644;2022-07-30T08:29:29;22.00;99.90
53294;DHT22;39181;53.440;5.644;2022-07-30T08:31:55;22.00;99.90
53294;DHT22;39181;53.440;5.644;2022-07-30T08:34:21;22.10;99.90
53294;DHT22;39181;53.440;5.644;2022-07-30T08:36:47;22.10;99.90
53294;DHT22;39181;53.440;5.644;2022-07-30T08:39:12;22.00;99.90
53294;DHT22;39181;53.440;5.644;2022-07-30T08:41:39;22.00;99.90
53294;DHT22;39181;53.440;5.644;2022-07-30T08:44:09;22.00;99.90
53294;DHT22;39181;53.440;5.644;2022-07-30T08:46:35;22.10;99.90
53294;DHT22;39181;53.440;5.644;2022-07-30T08:49:03;22.30;99.90
53294;DHT22;39181;53.440;5.644;2022-07-30T08:51:29;22.30;99.90
53294;DHT22;39181;53.440;5.644;2022-07-30T08:53:55;22.20;99.90
53294;DHT22;39181;53.440;5.644;2022-07-30T08:56:22;22.20;99.90
53294;DHT22;39181;53.440;5.644;2022-07-30T08:58:48;22.30;99.90
53294;DHT22;39181;53.440;5.644;2022-07-30T09:01:14;22.60;99.90
53294;DHT22;39181;53.440;5.644;2022-07-30T09:03:39;22.40;99.90
53294;DHT22;39181;53.440;5.644;2022-07-30T09:06:05;22.30;99.90
53294;DHT22;39181;53.440;5.644;2022-07-30T09:08:31;22.50;99.90
53294;DHT22;39181;53.440;5.644;2022-07-30T09:10:57;22.70;99.90
53294;DHT22;39181;53.440;5.644;2022-07-30T09:13:24;22.80;99.90
53294;DHT22;39181;53.440;5.644;2022-07-30T09:15:50;22.90;99.90
53294;DHT22;39181;53.440;5.644;2022-07-30T09:18:37;23.00;99.90
53294;DHT22;39181;53.440;5.644;2022-07-30T09:21:20;22.90;99.90
53294;DHT22;39181;53.440;5.644;2022-07-30T09:23:59;23.00;99.90
53294;DHT22;39181;53.440;5.644;2022-07-30T09:26:26;23.10;99.90
53294;DHT22;39181;53.440;5.644;2022-07-30T09:28:52;23.10;99.90
53294;DHT22;39181;53.440;5.644;2022-07-30T09:31:19;23.30;99.90
53294;DHT22;39181;53.440;5.644;2022-07-30T09:33:45;23.30;99.90
53294;DHT22;39181;53.440;5.644;2022-07-30T09:36:14;23.30;99.90
53294;DHT22;39181;53.440;5.644;2022-07-30T09:41:06;22.90;99.90
53294;DHT22;39181;53.440;5.644;2022-07-30T09:43:44;22.90;99.90
53294;DHT22;39181;53.440;5.644;2022-07-30T09:46:10;22.80;99.90
53294;DHT22;39181;53.440;5.644;2022-07-30T09:48:36;22.80;99.90
53294;DHT22;39181;53.440;5.644;2022-07-30T09:51:02;22.80;99.90
53294;DHT22;39181;53.440;5.644;2022-07-30T09:53:28;22.80;99.90
53294;DHT22;39181;53.440;5.644;2022-07-30T09:55:54;22.70;99.90
53294;DHT22;39181;53.440;5.644;2022-07-30T09:58:21;22.70;99.90
53294;DHT22;39181;53.440;5.644;2022-07-30T10:00:46;23.00;99.90
53294;DHT22;39181;53.440;5.644;2022-07-30T10:03:16;23.30;99.90
53294;DHT22;39181;53.440;5.644;2022-07-30T10:05:56;23.50;99.90
53294;DHT22;39181;53.440;5.644;2022-07-30T10:08:49;23.60;99.90
53294;DHT22;39181;53.440;5.644;2022-07-30T10:11:18;23.60;99.90
53294;DHT22;39181;53.440;5.644;2022-07-30T10:13:46;23.60;99.90
53294;DHT22;39181;53.440;5.644;2022-07-30T10:16:12;23.80;99.90
53294;DHT22;39181;53.440;5.644;2022-07-30T10:18:40;23.50;99.90
53294;DHT22;39181;53.440;5.644;2022-07-30T10:21:07;23.40;99.90
53294;DHT22;39181;53.440;5.644;2022-07-30T10:23:33;23.60;99.90
53294;DHT22;39181;53.440;5.644;2022-07-30T10:25:59;23.80;99.90
53294;DHT22;39181;53.440;5.644;2022-07-30T10:28:27;23.90;99.90
53294;DHT22;39181;53.440;5.644;2022-07-30T10:30:54;24.10;99.90
53294;DHT22;39181;53.440;5.644;2022-07-30T10:33:26;24.10;99.90
53294;DHT22;39181;53.440;5.644;2022-07-30T10:35:52;24.10;99.90
53294;DHT22;39181;53.440;5.644;2022-07-30T10:38:20;24.20;99.90
53294;DHT22;39181;53.440;5.644;2022-07-30T10:40:55;24.10;99.90
53294;DHT22;39181;53.440;5.644;2022-07-30T10:48:26;24.00;99.90
53294;DHT22;39181;53.440;5.644;2022-07-30T10:50:54;23.80;99.90
53294;DHT22;39181;53.440;5.644;2022-07-30T10:53:40;23.60;99.90
53294;DHT22;39181;53.440;5.644;2022-07-30T10:56:23;23.60;99.90
53294;DHT22;39181;53.440;5.644;2022-07-30T11:01:21;23.70;99.90
53294;DHT22;39181;53.440;5.644;2022-07-30T11:04:49;23.80;99.90
53294;DHT22;39181;53.440;5.644;2022-07-30T11:09:57;24.00;99.90
53294;DHT22;39181;53.440;5.644;2022-07-30T11:15:14;23.90;99.90
53294;DHT22;39181;53.440;5.644;2022-07-30T11:18:00;24.10;99.90
53294;DHT22;39181;53.440;5.644;2022-07-30T11:20:27;24.10;99.90
53294;DHT22;39181;53.440;5.644;2022-07-30T11:22:53;23.80;99.90
53294;DHT22;39181;53.440;5.644;2022-07-30T11:27:53;23.70;99.90
53294;DHT22;39181;53.440;5.644;2022-07-30T11:32:49;23.60;99.90
53294;DHT22;39181;53.440;5.644;2022-07-30T11:35:16;23.90;99.90
53294;DHT22;39181;53.440;5.644;2022-07-30T11:38:20;24.10;99.90
53294;DHT22;39181;53.440;5.644;2022-07-30T11:43:28;24.00;99.90
53294;DHT22;39181;53.440;5.644;2022-07-30T11:46:11;24.00;99.90
53294;DHT22;39181;53.440;5.644;2022-07-30T11:48:56;23.70;99.90
53294;DHT22;39181;53.440;5.644;2022-07-30T11:51:22;23.60;99.90
53294;DHT22;39181;53.440;5.644;2022-07-30T11:54:05;23.60;99.90
53294;DHT22;39181;53.440;5.644;2022-07-30T11:56:32;23.60;99.90
53294;DHT22;39181;53.440;5.644;2022-07-30T11:59:05;23.80;99.90
53294;DHT22;39181;53.440;5.644;2022-07-30T12:01:31;23.50;99.90
53294;DHT22;39181;53.440;5.644;2022-07-30T12:04:02;23.50;99.90
53294;DHT22;39181;53.440;5.644;2022-07-30T12:06:47;23.40;99.90
53294;DHT22;39181;53.440;5.644;2022-07-30T12:09:21;23.20;99.90
53294;DHT22;39181;53.440;5.644;2022-07-30T12:11:47;23.40;99.90
53294;DHT22;39181;53.440;5.644;2022-07-30T12:14:13;23.50;99.90
53294;DHT22;39181;53.440;5.644;2022-07-30T12:16:39;23.30;99.90
53294;DHT22;39181;53.440;5.644;2022-07-30T12:19:06;23.50;99.90
53294;DHT22;39181;53.440;5.644;2022-07-30T12:21:32;23.60;99.90
53294;DHT22;39181;53.440;5.644;2022-07-30T12:24:00;23.50;99.90
53294;DHT22;39181;53.440;5.644;2022-07-30T12:26:31;23.60;99.90
53294;DHT22;39181;53.440;5.644;2022-07-30T12:29:00;23.50;99.90
53294;DHT22;39181;53.440;5.644;2022-07-30T12:31:27;23.50;99.90
53294;DHT22;39181;53.440;5.644;2022-07-30T12:33:53;23.50;99.90
53294;DHT22;39181;53.440;5.644;2022-07-30T12:38:54;23.40;99.90
53294;DHT22;39181;53.440;5.644;2022-07-30T12:41:21;23.20;99.90
53294;DHT22;39181;53.440;5.644;2022-07-30T12:43:52;23.40;99.90
53294;DHT22;39181;53.440;5.644;2022-07-30T12:49:04;23.30;99.90
53294;DHT22;39181;53.440;5.644;2022-07-30T12:51:34;23.30;99.90
53294;DHT22;39181;53.440;5.644;2022-07-30T12:54:14;23.10;99.90
53294;DHT22;39181;53.440;5.644;2022-07-30T12:56:40;23.10;99.90
53294;DHT22;39181;53.440;5.644;2022-07-30T12:59:19;23.20;99.90
53294;DHT22;39181;53.440;5.644;2022-07-30T13:01:46;22.90;99.90
53294;DHT22;39181;53.440;5.644;2022-07-30T13:04:14;23.00;99.90
53294;DHT22;39181;53.440;5.644;2022-07-30T13:06:40;22.90;99.90
53294;DHT22;39181;53.440;5.644;2022-07-30T13:09:17;22.90;99.90
53294;DHT22;39181;53.440;5.644;2022-07-30T13:11:45;23.00;99.90
53294;DHT22;39181;53.440;5.644;2022-07-30T13:14:11;22.90;99.90
53294;DHT22;39181;53.440;5.644;2022-07-30T13:16:38;23.00;99.90
53294;DHT22;39181;53.440;5.644;2022-07-30T13:19:09;22.90;99.90
53294;DHT22;39181;53.440;5.644;2022-07-30T13:21:39;22.80;99.90
53294;DHT22;39181;53.440;5.644;2022-07-30T13:24:05;22.80;99.90
53294;DHT22;39181;53.440;5.644;2022-07-30T13:26:31;22.60;99.90
53294;DHT22;39181;53.440;5.644;2022-07-30T13:28:59;22.60;99.90
53294;DHT22;39181;53.440;5.644;2022-07-30T13:31:25;22.60;99.90
53294;DHT22;39181;53.440;5.644;2022-07-30T13:33:51;22.70;99.90
53294;DHT22;39181;53.440;5.644;2022-07-30T13:36:16;22.70;99.90
53294;DHT22;39181;53.440;5.644;2022-07-30T13:38:45;22.70;99.90
53294;DHT22;39181;53.440;5.644;2022-07-30T13:41:11;22.80;99.90
53294;DHT22;39181;53.440;5.644;2022-07-30T13:43:37;23.00;99.90
53294;DHT22;39181;53.440;5.644;2022-07-30T13:46:04;23.00;99.90
53294;DHT22;39181;53.440;5.644;2022-07-30T13:48:30;23.20;99.90
53294;DHT22;39181;53.440;5.644;2022-07-30T13:50:56;23.30;99.90
53294;DHT22;39181;53.440;5.644;2022-07-30T13:53:22;23.40;99.90
53294;DHT22;39181;53.440;5.644;2022-07-30T13:55:47;23.30;99.90
53294;DHT22;39181;53.440;5.644;2022-07-30T13:58:13;23.30;99.90
53294;DHT22;39181;53.440;5.644;2022-07-30T14:00:39;23.10;99.90
53294;DHT22;39181;53.440;5.644;2022-07-30T14:03:07;23.00;99.90
53294;DHT22;39181;53.440;5.644;2022-07-30T14:05:33;22.90;99.90
53294;DHT22;39181;53.440;5.644;2022-07-30T14:08:01;22.90;99.90
53294;DHT22;39181;53.440;5.644;2022-07-30T14:10:28;23.00;99.90
53294;DHT22;39181;53.440;5.644;2022-07-30T14:12:55;23.10;99.90
53294;DHT22;39181;53.440;5.644;2022-07-30T14:15:21;23.20;99.90
53294;DHT22;39181;53.440;5.644;2022-07-30T14:17:48;23.30;99.90
53294;DHT22;39181;53.440;5.644;2022-07-30T14:20:14;23.20;99.90
53294;DHT22;39181;53.440;5.644;2022-07-30T14:22:40;23.10;99.90
53294;DHT22;39181;53.440;5.644;2022-07-30T14:25:06;23.20;99.90
53294;DHT22;39181;53.440;5.644;2022-07-30T14:27:32;23.20;99.90
53294;DHT22;39181;53.440;5.644;2022-07-30T14:29:58;23.20;99.90
53294;DHT22;39181;53.440;5.644;2022-07-30T14:32:24;23.20;99.90
53294;DHT22;39181;53.440;5.644;2022-07-30T14:34:49;23.20;99.90
53294;DHT22;39181;53.440;5.644;2022-07-30T14:37:15;23.30;99.90
53294;DHT22;39181;53.440;5.644;2022-07-30T14:39:41;23.40;99.90
53294;DHT22;39181;53.440;5.644;2022-07-30T14:42:09;23.30;99.90
53294;DHT22;39181;53.440;5.644;2022-07-30T14:44:35;23.60;99.90
53294;DHT22;39181;53.440;5.644;2022-07-30T14:47:01;23.90;99.90
53294;DHT22;39181;53.440;5.644;2022-07-30T14:49:27;24.30;99.90
53294;DHT22;39181;53.440;5.644;2022-07-30T14:51:52;24.40;99.90
53294;DHT22;39181;53.440;5.644;2022-07-30T14:54:18;24.50;99.90
53294;DHT22;39181;53.440;5.644;2022-07-30T14:56:43;24.40;99.90
53294;DHT22;39181;53.440;5.644;2022-07-30T14:59:09;24.30;99.90
53294;DHT22;39181;53.440;5.644;2022-07-30T15:01:35;24.40;99.90
53294;DHT22;39181;53.440;5.644;2022-07-30T15:04:01;24.00;99.90
53294;DHT22;39181;53.440;5.644;2022-07-30T15:06:26;24.10;99.90
53294;DHT22;39181;53.440;5.644;2022-07-30T15:08:52;23.90;99.90
53294;DHT22;39181;53.440;5.644;2022-07-30T15:11:18;23.90;99.90
53294;DHT22;39181;53.440;5.644;2022-07-30T15:13:44;23.70;99.90
53294;DHT22;39181;53.440;5.644;2022-07-30T15:16:09;23.60;99.90
53294;DHT22;39181;53.440;5.644;2022-07-30T15:18:35;23.40;99.90
53294;DHT22;39181;53.440;5.644;2022-07-30T15:21:00;23.40;99.90
53294;DHT22;39181;53.440;5.644;2022-07-30T15:23:26;23.40;99.90
53294;DHT22;39181;53.440;5.644;2022-07-30T15:25:52;23.30;99.90
53294;DHT22;39181;53.440;5.644;2022-07-30T15:28:18;23.30;99.90
53294;DHT22;39181;53.440;5.644;2022-07-30T15:30:44;23.40;99.90
53294;DHT22;39181;53.440;5.644;2022-07-30T15:33:10;23.20;99.90
53294;DHT22;39181;53.440;5.644;2022-07-30T15:35:36;23.30;99.90
53294;DHT22;39181;53.440;5.644;2022-07-30T15:38:02;23.30;99.90
53294;DHT22;39181;53.440;5.644;2022-07-30T15:40:27;23.40;99.90
53294;DHT22;39181;53.440;5.644;2022-07-30T15:42:54;23.30;99.90
53294;DHT22;39181;53.440;5.644;2022-07-30T15:45:20;23.30;99.90
53294;DHT22;39181;53.440;5.644;2022-07-30T15:47:49;23.20;99.90
53294;DHT22;39181;53.440;5.644;2022-07-30T15:50:14;23.20;99.90
53294;DHT22;39181;53.440;5.644;2022-07-30T15:52:42;23.10;99.90
53294;DHT22;39181;53.440;5.644;2022-07-30T15:55:08;23.00;99.90
53294;DHT22;39181;53.440;5.644;2022-07-30T15:57:34;23.00;99.90
53294;DHT22;39181;53.440;5.644;2022-07-30T16:00:00;22.80;99.90
53294;DHT22;39181;53.440;5.644;2022-07-30T16:02:26;22.70;99.90
53294;DHT22;39181;53.440;5.644;2022-07-30T16:04:51;22.60;99.90
53294;DHT22;39181;53.440;5.644;2022-07-30T16:07:17;22.60;99.90